Terminal Aerodrome Forecast
Issued by NWS

Home | Current Version | Previous Version | Text Only | Print | Product List | Glossary Off
Versions: 1 2 3 4 5 6 7 8 9 10 11 12 13 14

000
FTUS42 KMHX 180300 AAB
TAFISO
TAF AMD
KISO 180333Z 1804/1824 30010G16KT P6SM BKN015
     FM180500 30010KT P6SM BKN060
     FM181400 33012G20KT P6SM SKC
      AMD LTD TO CLD VIS AND WIND=

USA.gov is the U.S. government's official web portal to all federal, state and local government web resources and services.